createdAt,value
2023-06-22T00:01:49.961Z,21.59
2023-06-22T00:03:36.394Z,21.59
2023-06-22T00:05:10.448Z,21.58
2023-06-22T00:07:01.069Z,21.56
2023-06-22T00:08:41.925Z,21.57
2023-06-22T00:10:07.965Z,21.55
2023-06-22T00:11:52.003Z,21.54
2023-06-22T00:13:31.832Z,21.50
2023-06-22T00:15:16.998Z,21.48
2023-06-22T00:17:02.203Z,21.44
2023-06-22T00:18:56.327Z,21.42
2023-06-22T00:20:42.186Z,21.39
2023-06-22T00:22:15.832Z,21.35
2023-06-22T00:23:51.577Z,21.31
2023-06-22T00:25:25.058Z,21.27
2023-06-22T00:26:58.531Z,21.24
2023-06-22T00:28:35.590Z,21.20
2023-06-22T00:30:20.510Z,21.16
2023-06-22T00:32:02.507Z,21.12
2023-06-22T00:33:51.974Z,21.07
2023-06-22T00:35:41.822Z,21.04
2023-06-22T00:37:15.384Z,21.04
2023-06-22T00:39:00.336Z,21.02
2023-06-22T00:40:33.930Z,21.03
2023-06-22T00:42:24.612Z,21.03
2023-06-22T00:44:10.276Z,21.01
2023-06-22T00:45:58.168Z,20.99
2023-06-22T00:47:39.311Z,20.96
2023-06-22T00:49:12.765Z,20.95
2023-06-22T00:50:57.972Z,20.95
2023-06-22T00:52:44.686Z,20.96
2023-06-22T00:54:09.069Z,20.95
2023-06-22T00:55:52.883Z,20.93
2023-06-22T00:57:29.047Z,20.91
2023-06-22T00:58:54.173Z,20.89
2023-06-22T01:00:39.618Z,20.85
2023-06-22T01:02:25.015Z,20.82
2023-06-22T01:03:47.594Z,20.79
2023-06-22T01:05:33.086Z,20.78
2023-06-22T01:07:06.886Z,20.76
2023-06-22T01:08:51.988Z,20.74
2023-06-22T01:10:28.028Z,20.71
2023-06-22T01:11:53.731Z,20.68
2023-06-22T01:13:29.938Z,20.63
2023-06-22T01:15:15.348Z,20.59
2023-06-22T01:17:00.911Z,20.54
2023-06-22T01:18:30.220Z,20.51
2023-06-22T01:20:17.216Z,20.50
2023-06-22T01:22:02.382Z,20.47
2023-06-22T01:23:53.558Z,20.38
2023-06-22T01:25:38.346Z,20.41
2023-06-22T01:27:26.762Z,20.36
2023-06-22T01:29:00.297Z,20.33
2023-06-22T01:30:46.941Z,20.31
2023-06-22T01:32:35.811Z,20.28
2023-06-22T01:34:17.089Z,20.25
2023-06-22T01:36:02.805Z,20.24
2023-06-22T01:37:50.027Z,20.22
2023-06-22T01:39:35.652Z,20.21
2023-06-22T01:41:18.472Z,20.19
2023-06-22T01:43:00.512Z,20.16
2023-06-22T01:44:45.550Z,20.12
2023-06-22T01:46:34.947Z,20.09
2023-06-22T01:48:23.479Z,20.06
2023-06-22T01:49:57.396Z,20.05
2023-06-22T01:51:44.206Z,20.02
2023-06-22T01:53:25.848Z,19.98
2023-06-22T01:55:11.140Z,19.95
2023-06-22T01:56:46.404Z,19.93
2023-06-22T01:58:33.940Z,19.90
2023-06-22T02:00:09.717Z,19.86
2023-06-22T02:01:37.263Z,19.83
2023-06-22T02:03:13.166Z,19.80
2023-06-22T02:04:58.812Z,19.78
2023-06-22T02:06:48.011Z,19.74
2023-06-22T02:08:30.782Z,19.70
2023-06-22T02:10:23.069Z,19.68
2023-06-22T02:11:58.716Z,19.67
2023-06-22T02:13:51.096Z,19.65
2023-06-22T02:15:24.583Z,19.64
2023-06-22T02:17:12.033Z,19.62
2023-06-22T02:18:49.306Z,19.61
2023-06-22T02:20:32.737Z,19.60
2023-06-22T02:22:06.197Z,19.60
2023-06-22T02:23:39.598Z,19.58
2023-06-22T02:25:29.713Z,19.57
2023-06-22T02:27:16.842Z,19.57
2023-06-22T02:29:03.562Z,19.55
2023-06-22T02:30:55.186Z,19.54
2023-06-22T02:32:30.383Z,19.53
2023-06-22T02:34:04.238Z,19.50
2023-06-22T02:35:50.025Z,19.48
2023-06-22T02:37:25.489Z,19.45
2023-06-22T02:39:02.785Z,19.43
2023-06-22T02:40:43.804Z,19.42
2023-06-22T02:42:41.404Z,19.40
2023-06-22T02:44:23.007Z,19.36
2023-06-22T02:46:08.331Z,19.32
2023-06-22T02:48:02.025Z,19.30
2023-06-22T02:49:50.056Z,19.27
2023-06-22T02:51:37.389Z,19.25
2023-06-22T02:53:23.079Z,19.25
2023-06-22T02:54:57.165Z,19.23
2023-06-22T02:56:43.205Z,19.21
2023-06-22T02:58:17.764Z,19.19
2023-06-22T02:59:44.663Z,19.18
2023-06-22T03:01:27.014Z,19.16
2023-06-22T03:03:00.795Z,19.15
2023-06-22T03:04:25.512Z,19.13
2023-06-22T03:06:11.038Z,19.10
2023-06-22T03:07:47.362Z,19.12
2023-06-22T03:09:20.653Z,19.11
2023-06-22T03:11:01.640Z,19.09
2023-06-22T03:12:36.876Z,19.08
2023-06-22T03:14:10.301Z,19.06
2023-06-22T03:16:06.653Z,19.07
2023-06-22T03:17:52.195Z,19.07
2023-06-22T03:19:38.844Z,19.08
2023-06-22T03:21:27.865Z,19.10
2023-06-22T03:23:08.830Z,19.12
2023-06-22T03:24:43.161Z,19.14
2023-06-22T03:26:36.218Z,19.15
2023-06-22T03:28:10.235Z,19.14
2023-06-22T03:30:03.509Z,19.15
2023-06-22T03:31:58.782Z,19.16
2023-06-22T03:33:34.932Z,19.17
2023-06-22T03:35:08.307Z,19.17
2023-06-22T03:37:05.012Z,19.20
2023-06-22T03:38:50.345Z,19.17
2023-06-22T03:40:31.919Z,19.17
2023-06-22T03:42:06.142Z,19.19
2023-06-22T03:43:53.765Z,19.22
2023-06-22T03:45:17.716Z,19.23
2023-06-22T03:47:03.410Z,19.27
2023-06-22T03:48:48.865Z,19.29
2023-06-22T03:50:30.301Z,19.31
2023-06-22T03:52:15.793Z,19.31
2023-06-22T03:53:51.677Z,19.33
2023-06-22T03:55:44.535Z,19.37
2023-06-22T03:57:07.089Z,19.39
2023-06-22T03:58:56.677Z,19.40
2023-06-22T04:00:31.156Z,19.42
2023-06-22T04:02:07.661Z,19.43
2023-06-22T04:03:49.424Z,19.43
2023-06-22T04:05:43.547Z,19.43
2023-06-22T04:07:37.248Z,19.46
2023-06-22T04:09:22.857Z,19.49
2023-06-22T04:10:47.109Z,19.51
2023-06-22T04:12:28.252Z,19.54
2023-06-22T04:14:01.899Z,19.56
2023-06-22T04:15:35.238Z,19.56
2023-06-22T04:17:16.062Z,19.56
2023-06-22T04:18:49.985Z,19.57
2023-06-22T04:20:36.145Z,19.57
2023-06-22T04:22:17.222Z,19.57
2023-06-22T04:23:55.425Z,19.61
2023-06-22T04:25:40.644Z,19.63
2023-06-22T04:27:26.532Z,19.67
2023-06-22T04:29:00.080Z,19.70
2023-06-22T04:30:55.666Z,19.71
2023-06-22T04:32:31.224Z,19.69
2023-06-22T04:34:19.569Z,19.71
2023-06-22T04:36:06.132Z,19.73
2023-06-22T04:37:40.830Z,19.75
2023-06-22T04:39:27.085Z,19.78
2023-06-22T04:41:14.296Z,19.81
2023-06-22T04:43:04.837Z,19.83
2023-06-22T04:44:38.663Z,19.85
2023-06-22T04:46:20.964Z,19.85
2023-06-22T04:48:01.630Z,19.85
2023-06-22T04:49:38.561Z,19.87
2023-06-22T04:51:16.780Z,19.89
2023-06-22T04:53:03.372Z,19.93
2023-06-22T04:54:48.133Z,19.95
2023-06-22T04:56:24.832Z,19.98
2023-06-22T04:58:03.615Z,20.01
2023-06-22T04:59:47.293Z,20.06
2023-06-22T05:01:34.631Z,20.09
2023-06-22T05:03:18.555Z,20.13
2023-06-22T05:04:53.180Z,20.16
2023-06-22T05:06:15.650Z,20.21
2023-06-22T05:07:52.576Z,20.25
2023-06-22T05:09:45.940Z,20.28
2023-06-22T05:11:19.629Z,20.29
2023-06-22T05:13:04.927Z,20.32
2023-06-22T05:14:58.708Z,20.33
2023-06-22T05:16:44.340Z,20.35
2023-06-22T05:18:08.277Z,20.39
2023-06-22T05:19:46.178Z,20.46
2023-06-22T05:21:08.076Z,20.54
2023-06-22T05:22:44.444Z,20.58
2023-06-22T05:24:36.813Z,20.58
2023-06-22T05:25:59.409Z,20.59
2023-06-22T05:27:46.186Z,20.61
2023-06-22T05:29:35.273Z,20.63
2023-06-22T05:31:09.650Z,20.67
2023-06-22T05:32:54.972Z,20.73
2023-06-22T05:34:39.827Z,20.81
2023-06-22T05:36:21.320Z,20.78
2023-06-22T05:37:54.664Z,20.86
2023-06-22T05:39:48.157Z,20.89
2023-06-22T05:41:28.820Z,20.94
2023-06-22T05:43:15.066Z,21.00
2023-06-22T05:44:48.335Z,21.05
2023-06-22T05:46:41.855Z,21.07
2023-06-22T05:48:29.183Z,21.11
2023-06-22T05:50:14.195Z,21.14
2023-06-22T05:51:47.603Z,21.18
2023-06-22T05:53:34.736Z,21.22
2023-06-22T05:55:29.605Z,21.28
2023-06-22T05:57:16.625Z,21.28
2023-06-22T05:58:58.516Z,21.29
2023-06-22T06:00:35.337Z,21.36
2023-06-22T06:02:09.408Z,21.48
2023-06-22T06:03:57.131Z,21.60
2023-06-22T06:05:30.737Z,21.69
2023-06-22T06:07:04.119Z,21.73
2023-06-22T06:08:49.754Z,21.72
2023-06-22T06:10:37.564Z,21.71
2023-06-22T06:12:14.018Z,21.73
2023-06-22T06:13:55.040Z,21.75
2023-06-22T06:15:28.709Z,21.74
2023-06-22T06:17:14.585Z,21.71
2023-06-22T06:18:59.867Z,21.72
2023-06-22T06:20:44.887Z,21.74
2023-06-22T06:22:39.574Z,21.83
2023-06-22T06:24:34.407Z,21.93
2023-06-22T06:26:08.379Z,21.92
2023-06-22T06:27:50.500Z,21.93
2023-06-22T06:29:24.777Z,21.98
2023-06-22T06:31:01.012Z,22.03
2023-06-22T06:32:41.477Z,22.05
2023-06-22T06:34:27.141Z,22.12
2023-06-22T06:36:12.286Z,22.13
2023-06-22T06:37:48.579Z,22.18
2023-06-22T06:39:36.178Z,22.23
2023-06-22T06:41:09.872Z,22.26
2023-06-22T06:42:57.278Z,22.26
2023-06-22T06:44:23.696Z,22.32
2023-06-22T06:45:57.541Z,22.36
2023-06-22T06:47:41.828Z,22.38
2023-06-22T06:49:17.445Z,22.46
2023-06-22T06:50:51.253Z,22.56
2023-06-22T06:52:25.363Z,22.61
2023-06-22T06:54:01.033Z,22.66
2023-06-22T06:55:41.776Z,22.71
2023-06-22T06:57:18.247Z,22.72
2023-06-22T06:58:53.962Z,22.68
2023-06-22T07:00:32.889Z,22.62
2023-06-22T07:01:57.615Z,22.60
2023-06-22T07:03:50.457Z,22.61
2023-06-22T07:05:36.185Z,22.71
2023-06-22T07:07:26.399Z,22.81
2023-06-22T07:09:00.112Z,22.90
2023-06-22T07:10:33.631Z,22.97
2023-06-22T07:12:19.647Z,23.00
2023-06-22T07:14:05.817Z,23.05
2023-06-22T07:15:58.150Z,23.12
2023-06-22T07:17:43.531Z,23.17
2023-06-22T07:19:05.208Z,23.21
2023-06-22T07:20:53.360Z,23.28
2023-06-22T07:22:41.121Z,23.39
2023-06-22T07:24:14.813Z,23.47
2023-06-22T07:25:50.176Z,23.48
2023-06-22T07:27:32.217Z,23.48
2023-06-22T07:29:08.772Z,23.48
2023-06-22T07:30:53.961Z,23.54
2023-06-22T07:32:27.238Z,23.59
2023-06-22T07:34:12.558Z,23.63
2023-06-22T07:35:47.174Z,23.67
2023-06-22T07:37:34.942Z,23.72
2023-06-22T07:39:08.528Z,23.77
2023-06-22T07:41:02.590Z,23.80
2023-06-22T07:42:26.738Z,23.84
2023-06-22T07:44:09.956Z,23.89
2023-06-22T07:45:51.569Z,23.95
2023-06-22T07:47:27.541Z,24.02
2023-06-22T07:49:12.601Z,24.10
2023-06-22T07:50:58.216Z,24.15
2023-06-22T07:52:41.137Z,24.21
2023-06-22T07:54:16.868Z,24.27
2023-06-22T07:55:50.402Z,24.33
2023-06-22T07:57:43.904Z,24.40
2023-06-22T07:59:32.424Z,24.50
2023-06-22T08:01:13.015Z,24.61
2023-06-22T08:03:01.263Z,24.64
2023-06-22T08:04:43.640Z,24.65
2023-06-22T08:06:34.704Z,24.68
2023-06-22T08:08:20.128Z,24.72
2023-06-22T08:09:54.285Z,24.74
2023-06-22T08:11:41.728Z,24.72
2023-06-22T08:13:23.008Z,24.72
2023-06-22T08:14:59.175Z,24.71
2023-06-22T08:16:51.385Z,24.74
2023-06-22T08:18:36.589Z,24.83
2023-06-22T08:20:11.972Z,24.88
2023-06-22T08:21:36.218Z,24.93
2023-06-22T08:23:06.157Z,24.98
2023-06-22T08:24:51.880Z,25.06
2023-06-22T08:26:37.975Z,25.10
2023-06-22T08:28:11.781Z,25.09
2023-06-22T08:29:43.300Z,25.06
2023-06-22T08:31:18.967Z,25.05
2023-06-22T08:32:55.385Z,25.07
2023-06-22T08:34:24.671Z,25.17
2023-06-22T08:35:46.621Z,25.24
2023-06-22T08:37:20.391Z,25.31
2023-06-22T08:38:51.742Z,25.38
2023-06-22T08:40:37.693Z,25.45
2023-06-22T08:41:59.645Z,25.49
2023-06-22T08:43:23.961Z,25.49
2023-06-22T08:44:57.729Z,25.49
2023-06-22T08:46:33.890Z,25.52
2023-06-22T08:48:26.897Z,25.56
2023-06-22T08:50:12.183Z,25.54
2023-06-22T08:51:58.613Z,25.54
2023-06-22T08:53:31.778Z,25.61
2023-06-22T08:55:05.589Z,25.65
2023-06-22T08:56:59.640Z,25.67
2023-06-22T08:58:44.558Z,25.70
2023-06-22T09:00:22.801Z,25.76
2023-06-22T09:02:07.789Z,25.82
2023-06-22T09:03:41.413Z,25.87
2023-06-22T09:05:28.069Z,25.94
2023-06-22T09:07:09.644Z,26.04
2023-06-22T09:08:57.858Z,26.04
2023-06-22T09:10:27.530Z,26.06
2023-06-22T09:11:59.915Z,26.10
2023-06-22T09:13:45.693Z,26.14
2023-06-22T09:15:13.138Z,26.22
2023-06-22T09:16:52.254Z,26.26
2023-06-22T09:18:46.609Z,26.26
2023-06-22T09:20:23.488Z,26.30
2023-06-22T09:22:09.346Z,26.37
2023-06-22T09:23:58.187Z,26.42
2023-06-22T09:25:44.534Z,26.51
2023-06-22T09:27:20.440Z,26.63
2023-06-22T09:29:01.351Z,26.68
2023-06-22T09:30:35.287Z,26.69
2023-06-22T09:32:11.622Z,26.69
2023-06-22T09:33:54.604Z,26.72
2023-06-22T09:35:36.698Z,26.75
2023-06-22T09:37:09.829Z,26.82
2023-06-22T09:38:43.865Z,26.84
2023-06-22T09:40:22.988Z,26.90
2023-06-22T09:42:04.850Z,27.02
2023-06-22T09:43:29.208Z,27.03
2023-06-22T09:45:02.662Z,26.99
2023-06-22T09:46:26.715Z,26.93
2023-06-22T09:47:55.827Z,27.00
2023-06-22T09:49:47.165Z,27.12
2023-06-22T09:51:34.414Z,27.29
2023-06-22T09:53:07.983Z,27.35
2023-06-22T09:54:29.865Z,27.35
2023-06-22T09:56:15.778Z,27.31
2023-06-22T09:58:00.719Z,27.31
2023-06-22T09:59:54.609Z,27.31
2023-06-22T10:01:26.263Z,27.36
2023-06-22T10:03:01.393Z,27.43
2023-06-22T10:04:49.491Z,27.44
2023-06-22T10:06:45.547Z,27.51
2023-06-22T10:08:12.894Z,27.65
2023-06-22T10:09:46.855Z,27.69
2023-06-22T10:11:32.604Z,27.76
2023-06-22T10:13:18.790Z,27.77
2023-06-22T10:14:43.091Z,27.73
2023-06-22T10:16:19.290Z,27.66
2023-06-22T10:18:06.495Z,27.66
2023-06-22T10:19:42.830Z,27.73
2023-06-22T10:21:28.571Z,27.83
2023-06-22T10:22:53.704Z,27.89
2023-06-22T10:24:29.778Z,27.91
2023-06-22T10:26:03.400Z,27.96
2023-06-22T10:27:50.970Z,27.94
2023-06-22T10:29:36.231Z,28.04
2023-06-22T10:31:12.269Z,28.15
2023-06-22T10:32:55.610Z,28.28
2023-06-22T10:34:29.825Z,28.50
2023-06-22T10:36:03.708Z,28.60
2023-06-22T10:37:46.979Z,28.66
2023-06-22T10:39:20.541Z,28.62
2023-06-22T10:41:01.360Z,28.51
2023-06-22T10:42:36.909Z,28.45
2023-06-22T10:44:22.901Z,28.43
2023-06-22T10:45:59.742Z,28.49
2023-06-22T10:47:44.842Z,28.63
2023-06-22T10:49:20.932Z,28.88
2023-06-22T10:51:06.134Z,29.10
2023-06-22T10:52:39.045Z,29.29
2023-06-22T10:54:14.632Z,29.30
2023-06-22T10:56:00.033Z,29.39
2023-06-22T10:57:54.698Z,29.61
2023-06-22T10:59:33.670Z,29.76
2023-06-22T11:01:06.753Z,29.83
2023-06-22T11:02:30.800Z,29.94
2023-06-22T11:04:02.545Z,29.96
2023-06-22T11:05:47.373Z,29.98
2023-06-22T11:09:35.362Z,30.31
2023-06-22T11:11:25.564Z,30.55
2023-06-22T11:13:13.828Z,30.68
2023-06-22T11:14:59.824Z,30.86
2023-06-22T11:16:54.668Z,30.97
2023-06-22T11:18:47.708Z,30.97
2023-06-22T11:20:20.920Z,31.02
2023-06-22T11:21:49.893Z,31.06
2023-06-22T11:23:31.085Z,31.14
2023-06-22T11:25:07.118Z,31.08
2023-06-22T11:27:01.684Z,30.99
2023-06-22T11:28:46.871Z,31.09
2023-06-22T11:30:21.120Z,31.20
2023-06-22T11:32:03.858Z,31.21
2023-06-22T11:33:30.561Z,31.31
2023-06-22T11:35:04.276Z,31.38
2023-06-22T11:36:49.396Z,31.38
2023-06-22T11:38:43.062Z,31.30
2023-06-22T11:40:24.046Z,31.26
2023-06-22T11:42:09.199Z,31.35
2023-06-22T11:43:47.197Z,31.48
2023-06-22T11:45:08.591Z,31.50
2023-06-22T11:46:56.625Z,31.56
2023-06-22T11:48:30.064Z,31.79
2023-06-22T11:50:03.374Z,31.93
2023-06-22T11:51:25.309Z,31.92
2023-06-22T11:52:49.932Z,31.87
2023-06-22T11:54:19.159Z,31.97
2023-06-22T11:56:03.306Z,32.24
2023-06-22T11:57:39.229Z,32.53
2023-06-22T11:59:03.384Z,32.69
2023-06-22T12:00:51.044Z,32.83
2023-06-22T12:02:21.979Z,32.80
2023-06-22T12:03:55.387Z,32.66
2023-06-22T12:05:25.165Z,32.59
2023-06-22T12:06:48.962Z,32.70
2023-06-22T12:08:11.028Z,32.85
2023-06-22T12:10:04.724Z,33.02
2023-06-22T12:11:38.310Z,33.20
2023-06-22T12:13:18.756Z,33.39
2023-06-22T12:15:04.270Z,33.44
2023-06-22T12:16:40.208Z,33.64
2023-06-22T12:18:15.994Z,33.64
2023-06-22T12:19:51.805Z,33.64
2023-06-22T12:21:41.678Z,33.63
2023-06-22T12:23:13.471Z,33.54
2023-06-22T12:24:46.829Z,33.37
2023-06-22T12:26:20.352Z,33.44
2023-06-22T12:27:44.017Z,33.53
2023-06-22T12:29:17.709Z,33.61
2023-06-22T12:30:51.503Z,33.65
2023-06-22T12:32:32.573Z,33.63
2023-06-22T12:34:13.231Z,33.72
2023-06-22T12:35:46.954Z,33.85
2023-06-22T12:37:21.382Z,33.68
2023-06-22T12:38:56.457Z,33.55
2023-06-22T12:40:45.832Z,33.50
2023-06-22T12:42:22.093Z,33.55
2023-06-22T12:43:43.939Z,33.65
2023-06-22T12:45:05.419Z,33.79
2023-06-22T12:46:47.612Z,33.89
2023-06-22T12:48:32.762Z,33.83
2023-06-22T12:50:18.076Z,33.86
2023-06-22T12:51:59.234Z,33.74
2023-06-22T12:53:34.311Z,33.60
2023-06-22T12:55:15.152Z,33.65
2023-06-22T12:56:41.761Z,33.91
2023-06-22T12:58:27.047Z,34.24
2023-06-22T13:00:08.684Z,34.65
2023-06-22T13:01:54.988Z,34.87
2023-06-22T13:03:16.545Z,34.89
2023-06-22T13:04:50.369Z,34.77
2023-06-22T13:06:27.062Z,34.80
2023-06-22T13:08:13.200Z,34.84
2023-06-22T13:09:54.260Z,34.60
2023-06-22T13:11:29.700Z,34.55
2023-06-22T13:13:03.329Z,34.66
2023-06-22T13:14:56.944Z,34.79
2023-06-22T13:16:38.911Z,34.59
2023-06-22T13:18:25.002Z,34.61
2023-06-22T13:20:09.870Z,34.63
2023-06-22T13:21:52.674Z,34.73
2023-06-22T13:23:44.791Z,35.14
2023-06-22T13:25:20.366Z,35.32
2023-06-22T13:27:06.581Z,35.22
2023-06-22T13:28:40.061Z,35.20
2023-06-22T13:30:14.824Z,35.07
2023-06-22T13:32:00.449Z,34.87
2023-06-22T13:33:35.977Z,34.85
2023-06-22T13:35:11.709Z,35.03
2023-06-22T13:36:45.450Z,35.22
2023-06-22T13:38:09.653Z,35.32
2023-06-22T13:40:03.251Z,35.31
2023-06-22T13:41:52.893Z,35.03
2023-06-22T13:43:26.562Z,34.81
2023-06-22T13:45:11.753Z,34.75
2023-06-22T13:46:57.521Z,34.82
2023-06-22T13:48:30.944Z,34.75
2023-06-22T13:50:04.309Z,34.76
2023-06-22T13:51:59.688Z,35.08
2023-06-22T13:53:33.283Z,35.50
2023-06-22T13:55:06.672Z,35.53
2023-06-22T13:56:51.730Z,35.38
2023-06-22T13:58:27.089Z,35.44
2023-06-22T14:00:12.995Z,35.48
2023-06-22T14:03:45.842Z,35.45
2023-06-22T14:05:40.707Z,35.35
2023-06-22T14:07:34.701Z,35.04
2023-06-22T14:09:03.914Z,34.84
2023-06-22T14:10:50.993Z,34.67
2023-06-22T14:12:26.565Z,34.80
2023-06-22T14:14:11.881Z,34.94
2023-06-22T14:15:56.960Z,35.13
2023-06-22T14:17:30.718Z,34.92
2023-06-22T14:19:13.345Z,34.48
2023-06-22T14:20:58.724Z,34.49
2023-06-22T14:22:32.262Z,34.61
2023-06-22T14:24:17.096Z,34.69
2023-06-22T14:26:03.554Z,34.71
2023-06-22T14:27:40.597Z,34.95
2023-06-22T14:29:14.029Z,35.18
2023-06-22T14:30:55.077Z,35.38
2023-06-22T14:34:59.231Z,35.90
2023-06-22T14:36:21.225Z,35.92
2023-06-22T14:38:06.062Z,35.99
2023-06-22T14:39:47.243Z,35.79
2023-06-22T14:41:31.728Z,35.85
2023-06-22T14:43:16.815Z,36.03
2023-06-22T14:45:02.014Z,35.83
2023-06-22T14:46:56.797Z,35.72
2023-06-22T14:48:30.674Z,35.57
2023-06-22T14:50:06.448Z,35.64
2023-06-22T14:51:47.297Z,35.56
2023-06-22T14:53:13.307Z,35.43
2023-06-22T14:54:58.808Z,35.32
2023-06-22T14:56:53.709Z,35.31
2023-06-22T14:58:20.383Z,35.39
2023-06-22T14:59:56.582Z,35.51
2023-06-22T15:01:18.203Z,35.69
2023-06-22T15:02:53.023Z,35.88
2023-06-22T15:04:44.552Z,36.28
2023-06-22T15:06:29.831Z,36.49
2023-06-22T15:08:03.870Z,36.18
2023-06-22T15:09:57.726Z,35.88
2023-06-22T15:11:51.705Z,35.88
2023-06-22T15:13:36.785Z,36.23
2023-06-22T15:15:31.723Z,36.12
2023-06-22T15:17:16.261Z,35.70
2023-06-22T15:19:02.134Z,35.55
2023-06-22T15:20:36.077Z,35.69
2023-06-22T15:22:13.117Z,35.61
2023-06-22T15:23:44.284Z,35.34
2023-06-22T15:25:26.780Z,35.18
2023-06-22T15:27:00.329Z,34.89
2023-06-22T15:28:54.751Z,34.68
2023-06-22T15:30:39.975Z,34.89
2023-06-22T15:32:11.169Z,34.71
2023-06-22T15:33:57.538Z,34.49
2023-06-22T15:35:33.190Z,34.45
2023-06-22T15:37:27.742Z,34.69
2023-06-22T15:39:12.760Z,34.65
2023-06-22T15:40:47.056Z,34.48
2023-06-22T15:42:36.749Z,34.24
2023-06-22T15:44:21.850Z,33.97
2023-06-22T15:45:55.447Z,33.83
2023-06-22T15:47:44.749Z,33.34
2023-06-22T15:49:18.175Z,32.72
2023-06-22T15:51:04.138Z,32.30
2023-06-22T15:52:37.513Z,31.84
2023-06-22T15:54:13.504Z,31.56
2023-06-22T15:55:59.648Z,31.14
2023-06-22T15:57:35.662Z,30.75
2023-06-22T15:59:20.986Z,30.41
2023-06-22T16:00:52.438Z,30.18
2023-06-22T16:02:29.194Z,30.01
2023-06-22T16:04:10.505Z,29.85
2023-06-22T16:05:44.010Z,29.71
2023-06-22T16:07:17.825Z,29.61
2023-06-22T16:08:55.937Z,29.54
2023-06-22T16:10:37.650Z,29.50
2023-06-22T16:12:24.730Z,29.45
2023-06-22T16:14:01.503Z,29.35
2023-06-22T16:15:35.468Z,29.24
2023-06-22T16:16:59.881Z,29.23
2023-06-22T16:18:42.364Z,29.13
2023-06-22T16:20:17.849Z,28.97
2023-06-22T16:21:51.924Z,28.85
2023-06-22T16:23:25.346Z,28.72
2023-06-22T16:24:56.759Z,28.62
2023-06-22T16:26:19.026Z,28.58
2023-06-22T16:27:52.352Z,28.52
2023-06-22T16:29:14.059Z,28.46
2023-06-22T16:30:45.313Z,28.34
2023-06-22T16:32:15.518Z,28.29
2023-06-22T16:33:51.419Z,28.21
2023-06-22T16:35:17.540Z,28.10
2023-06-22T16:37:03.147Z,28.04
2023-06-22T16:38:39.067Z,27.98
2023-06-22T16:40:23.996Z,27.89
2023-06-22T16:41:47.979Z,27.81
2023-06-22T16:43:23.484Z,27.76
2023-06-22T16:44:54.998Z,27.69
2023-06-22T16:46:40.122Z,27.62
2023-06-22T16:48:34.745Z,27.57
2023-06-22T16:50:09.077Z,27.47
2023-06-22T16:51:44.839Z,27.41
2023-06-22T16:53:30.226Z,27.33
2023-06-22T16:55:05.464Z,27.32
2023-06-22T16:56:40.242Z,27.30
2023-06-22T16:58:14.431Z,27.28
2023-06-22T17:00:10.764Z,27.25
2023-06-22T17:01:59.419Z,27.20
2023-06-22T17:03:42.889Z,27.13
2023-06-22T17:05:20.912Z,27.04
2023-06-22T17:06:55.049Z,26.93
2023-06-22T17:08:46.762Z,26.84
2023-06-22T17:10:23.370Z,26.77
2023-06-22T17:12:08.564Z,26.70
2023-06-22T17:14:02.076Z,26.64
2023-06-22T17:15:55.532Z,26.57
2023-06-22T17:17:40.816Z,26.49
2023-06-22T17:19:23.687Z,26.43
2023-06-22T17:20:59.246Z,26.39
2023-06-22T17:22:53.217Z,26.34
2023-06-22T17:24:26.661Z,26.30
2023-06-22T17:26:11.858Z,26.24
2023-06-22T17:27:47.451Z,26.20
2023-06-22T17:29:39.632Z,26.15
2023-06-22T17:31:15.419Z,26.11
2023-06-22T17:33:01.737Z,26.07
2023-06-22T17:34:36.976Z,26.03
2023-06-22T17:36:05.933Z,25.98
2023-06-22T17:37:51.745Z,25.93
2023-06-22T17:39:36.757Z,25.87
2023-06-22T17:41:00.828Z,25.83
2023-06-22T17:42:34.067Z,25.79
2023-06-22T17:44:09.185Z,25.74
2023-06-22T17:46:03.771Z,25.70
2023-06-22T17:47:57.830Z,25.64
2023-06-22T17:49:34.197Z,25.58
2023-06-22T17:51:07.911Z,25.55
2023-06-22T17:52:53.411Z,25.51
2023-06-22T17:54:39.027Z,25.47
2023-06-22T17:56:02.520Z,25.41
2023-06-22T17:57:47.219Z,25.40
2023-06-22T17:59:20.093Z,25.36
2023-06-22T18:00:44.402Z,25.31
2023-06-22T18:02:20.221Z,25.27
2023-06-22T18:03:51.931Z,25.23
2023-06-22T18:05:14.083Z,25.20
2023-06-22T18:06:49.700Z,25.16
2023-06-22T18:08:23.349Z,25.12
2023-06-22T18:09:52.668Z,25.08
2023-06-22T18:11:30.418Z,25.03
2023-06-22T18:13:19.026Z,24.98
2023-06-22T18:15:08.470Z,24.91
2023-06-22T18:17:02.801Z,24.85
2023-06-22T18:18:52.756Z,24.73
2023-06-22T18:20:38.095Z,24.73
2023-06-22T18:22:11.636Z,24.66
2023-06-22T18:24:05.062Z,24.58
2023-06-22T18:25:40.218Z,24.51
2023-06-22T18:27:28.516Z,24.44
2023-06-22T18:29:09.466Z,24.31
2023-06-22T18:30:57.554Z,24.27
2023-06-22T18:32:21.941Z,24.19
2023-06-22T18:34:07.241Z,24.12
2023-06-22T18:35:48.702Z,24.06
2023-06-22T18:37:16.194Z,24.00
2023-06-22T18:38:49.727Z,23.85
2023-06-22T18:40:21.283Z,23.87
2023-06-22T18:42:10.314Z,23.81
2023-06-22T18:43:55.556Z,23.72
2023-06-22T18:45:50.095Z,23.64
2023-06-22T18:47:11.946Z,23.57
2023-06-22T18:49:04.946Z,23.52
2023-06-22T18:50:53.424Z,23.44
2023-06-22T18:52:27.419Z,23.37
2023-06-22T18:54:08.855Z,23.30
2023-06-22T18:55:48.571Z,23.24
2023-06-22T18:57:22.209Z,23.16
2023-06-22T18:59:06.930Z,23.11
2023-06-22T19:00:42.220Z,23.04
2023-06-22T19:02:15.488Z,22.98
2023-06-22T19:03:42.087Z,22.92
2023-06-22T19:05:12.173Z,22.85
2023-06-22T19:06:57.493Z,22.81
2023-06-22T19:08:50.187Z,22.75
2023-06-22T19:10:36.131Z,22.67
2023-06-22T19:12:20.805Z,22.60
2023-06-22T19:14:05.521Z,22.53
2023-06-22T19:15:42.299Z,22.46
2023-06-22T19:17:15.829Z,22.39
2023-06-22T19:19:01.233Z,22.32
2023-06-22T19:20:47.291Z,22.23
2023-06-22T19:22:32.563Z,22.15
2023-06-22T19:23:56.407Z,22.09
2023-06-22T19:25:46.083Z,22.03
2023-06-22T19:27:15.223Z,21.96
2023-06-22T19:28:44.104Z,21.91
2023-06-22T19:30:17.938Z,21.84
2023-06-22T19:31:39.515Z,21.79
2023-06-22T19:33:13.024Z,21.75
2023-06-22T19:34:58.705Z,21.69
2023-06-22T19:36:25.236Z,21.64
2023-06-22T19:37:50.055Z,21.61
2023-06-22T19:39:23.555Z,21.58
2023-06-22T19:40:58.251Z,21.54
2023-06-22T19:42:31.766Z,21.50
2023-06-22T19:44:26.788Z,21.47
2023-06-22T19:45:49.325Z,21.42
2023-06-22T19:47:33.964Z,21.35
2023-06-22T19:49:00.682Z,21.29
2023-06-22T19:50:41.411Z,21.22
2023-06-22T19:52:08.123Z,21.20
2023-06-22T19:54:02.812Z,21.15
2023-06-22T19:55:56.808Z,21.10
2023-06-22T19:57:32.900Z,21.05
2023-06-22T19:59:06.523Z,20.98
2023-06-22T20:00:57.394Z,20.93
2023-06-22T20:02:34.055Z,20.89
2023-06-22T20:04:11.538Z,20.85
2023-06-22T20:06:05.784Z,20.81
2023-06-22T20:07:40.406Z,20.76
2023-06-22T20:09:21.357Z,20.71
2023-06-22T20:10:55.988Z,20.64
2023-06-22T20:12:32.317Z,20.60
2023-06-22T20:14:06.495Z,20.56
2023-06-22T20:15:52.118Z,20.52
2023-06-22T20:17:36.288Z,20.47
2023-06-22T20:19:15.783Z,20.43
2023-06-22T20:21:01.238Z,20.40
2023-06-22T20:22:34.893Z,20.37
2023-06-22T20:24:10.473Z,20.34
2023-06-22T20:25:55.689Z,20.34
2023-06-22T20:27:31.227Z,20.32
2023-06-22T20:29:24.197Z,20.31
2023-06-22T20:31:09.312Z,20.30
2023-06-22T20:32:45.711Z,20.27
2023-06-22T20:34:19.048Z,20.24
2023-06-22T20:35:52.365Z,20.23
2023-06-22T20:37:29.430Z,20.21
2023-06-22T20:39:14.753Z,20.20
2023-06-22T20:40:55.475Z,20.19
2023-06-22T20:42:40.819Z,20.18
2023-06-22T20:44:35.013Z,20.15
2023-06-22T20:46:08.451Z,20.11
2023-06-22T20:47:33.181Z,20.07
2023-06-22T20:49:06.754Z,20.04
2023-06-22T20:50:31.328Z,20.02
2023-06-22T20:52:05.693Z,19.99
2023-06-22T20:53:32.317Z,19.97
2023-06-22T20:55:17.501Z,19.95
2023-06-22T20:56:53.374Z,19.94
2023-06-22T20:58:27.065Z,19.93
2023-06-22T20:59:49.335Z,19.91
2023-06-22T21:01:41.859Z,19.88
2023-06-22T21:03:15.649Z,19.86
2023-06-22T21:05:03.144Z,19.83
2023-06-22T21:06:36.552Z,19.82
2023-06-22T21:08:23.948Z,19.79
2023-06-22T21:09:51.627Z,19.76
2023-06-22T21:11:37.827Z,19.73
2023-06-22T21:13:01.929Z,19.69
2023-06-22T21:14:47.165Z,19.66
2023-06-22T21:16:20.607Z,19.64
2023-06-22T21:17:44.702Z,19.62
2023-06-22T21:19:25.476Z,19.60
2023-06-22T21:20:58.902Z,19.56
2023-06-22T21:22:46.863Z,19.52
2023-06-22T21:24:34.289Z,19.52
2023-06-22T21:26:08.245Z,19.52
2023-06-22T21:27:52.901Z,19.51
2023-06-22T21:29:28.364Z,19.51
2023-06-22T21:31:02.095Z,19.52
2023-06-22T21:32:43.467Z,19.52